createdAt,value
2023-04-02T00:00:12.059Z,7.30
2023-04-02T00:03:15.565Z,7.45
2023-04-02T00:06:45.262Z,7.56
2023-04-02T00:09:48.351Z,7.64
2023-04-02T00:13:09.475Z,7.61
2023-04-02T00:16:23.911Z,7.53
2023-04-02T00:20:06.684Z,7.51
2023-04-02T00:23:12.847Z,7.47
2023-04-02T00:26:36.794Z,7.47
2023-04-02T00:29:54.240Z,7.37
2023-04-02T00:32:58.204Z,7.58
2023-04-02T00:36:01.147Z,7.56
2023-04-02T00:39:11.170Z,7.57
2023-04-02T00:42:13.761Z,7.58
2023-04-02T00:45:25.200Z,7.67
2023-04-02T00:48:43.776Z,7.72
2023-04-02T00:51:55.469Z,7.76
2023-04-02T00:55:05.998Z,7.83
2023-04-02T00:58:41.771Z,7.82
2023-04-02T01:01:44.961Z,7.87
2023-04-02T01:04:59.204Z,7.90
2023-04-02T01:08:17.731Z,7.90
2023-04-02T01:11:22.953Z,7.93
2023-04-02T01:14:36.753Z,7.97
2023-04-02T01:18:18.720Z,7.99
2023-04-02T01:21:33.497Z,8.00
2023-04-02T01:24:39.419Z,8.05
2023-04-02T01:27:47.879Z,8.05
2023-04-02T01:30:56.530Z,8.09
2023-04-02T01:34:01.331Z,8.02
2023-04-02T01:37:23.880Z,8.07
2023-04-02T01:40:32.141Z,8.07
2023-04-02T01:43:50.654Z,8.00
2023-04-02T01:46:53.882Z,8.11
2023-04-02T01:50:22.738Z,8.11
2023-04-02T01:53:28.193Z,8.11
2023-04-02T01:56:31.745Z,8.13
2023-04-02T01:59:35.942Z,8.14
2023-04-02T02:02:40.242Z,8.10
2023-04-02T02:05:43.905Z,8.22
2023-04-02T02:08:55.783Z,8.15
2023-04-02T02:11:59.985Z,8.30
2023-04-02T02:15:03.523Z,8.19
2023-04-02T02:18:08.124Z,8.27
2023-04-02T02:21:13.370Z,8.25
2023-04-02T02:24:27.335Z,8.26
2023-04-02T02:27:37.986Z,8.28
2023-04-02T02:30:50.823Z,8.27
2023-04-02T02:34:02.522Z,8.23
2023-04-02T02:37:15.640Z,8.16
2023-04-02T02:40:30.636Z,8.14
2023-04-02T02:43:34.348Z,8.15
2023-04-02T02:46:46.988Z,8.10
2023-04-02T02:49:53.274Z,8.07
2023-04-02T02:52:59.249Z,8.04
2023-04-02T02:56:04.097Z,7.89
2023-04-02T02:59:09.321Z,7.90
2023-04-02T03:02:12.619Z,7.90
2023-04-02T03:05:18.319Z,7.88
2023-04-02T03:08:30.593Z,7.97
2023-04-02T03:11:39.507Z,7.94
2023-04-02T03:14:55.973Z,7.90
2023-04-02T03:18:12.179Z,7.88
2023-04-02T03:21:40.172Z,7.81
2023-04-02T03:25:07.065Z,7.65
2023-04-02T03:28:17.554Z,7.65
2023-04-02T03:31:26.613Z,7.50
2023-04-02T03:34:35.800Z,7.48
2023-04-02T03:37:39.047Z,7.48
2023-04-02T03:40:46.966Z,7.40
2023-04-02T03:43:56.748Z,7.39
2023-04-02T03:47:09.365Z,7.44
2023-04-02T03:50:18.469Z,7.41
2023-04-02T03:53:26.666Z,7.44
2023-04-02T03:56:40.017Z,7.54
2023-04-02T03:59:57.954Z,7.52
2023-04-02T04:03:14.035Z,7.44
2023-04-02T04:06:24.857Z,7.44
2023-04-02T04:09:35.569Z,7.21
2023-04-02T04:12:44.406Z,7.28
2023-04-02T04:15:55.328Z,7.23
2023-04-02T04:19:08.258Z,7.22
2023-04-02T04:22:30.651Z,7.16
2023-04-02T04:25:35.215Z,7.06
2023-04-02T04:28:58.799Z,6.95
2023-04-02T04:32:27.458Z,6.91
2023-04-02T04:35:35.225Z,6.76
2023-04-02T04:38:40.962Z,6.73
2023-04-02T04:41:46.066Z,6.77
2023-04-02T04:45:24.782Z,6.86
2023-04-02T04:48:36.450Z,6.93
2023-04-02T04:51:45.373Z,7.00
2023-04-02T04:54:49.387Z,7.07
2023-04-02T04:57:58.686Z,7.12
2023-04-02T05:01:07.385Z,7.21
2023-04-02T05:04:14.994Z,7.27
2023-04-02T05:07:31.017Z,7.31
2023-04-02T05:10:43.347Z,7.32
2023-04-02T05:13:57.265Z,7.38
2023-04-02T05:17:08.054Z,7.43
2023-04-02T05:20:20.651Z,7.52
2023-04-02T05:23:27.661Z,7.49
2023-04-02T05:26:46.553Z,7.55
2023-04-02T05:30:08.360Z,7.64
2023-04-02T05:33:21.350Z,7.63
2023-04-02T05:36:26.549Z,7.67
2023-04-02T05:39:29.938Z,7.82
2023-04-02T05:42:36.047Z,7.71
2023-04-02T05:45:41.773Z,7.91
2023-04-02T05:48:45.414Z,8.12
2023-04-02T05:51:51.389Z,8.14
2023-04-02T05:55:07.244Z,8.41
2023-04-02T05:58:34.754Z,8.43
2023-04-02T06:01:56.292Z,8.61
2023-04-02T06:05:21.529Z,8.78
2023-04-02T06:08:31.670Z,8.84
2023-04-02T06:11:42.515Z,8.89
2023-04-02T06:14:47.094Z,8.98
2023-04-02T06:17:59.085Z,8.82
2023-04-02T06:21:03.414Z,9.06
2023-04-02T06:24:07.242Z,9.42
2023-04-02T06:27:14.700Z,9.46
2023-04-02T06:30:37.543Z,9.16
2023-04-02T06:33:41.021Z,8.91
2023-04-02T06:36:45.514Z,8.97
2023-04-02T06:39:48.997Z,9.23
2023-04-02T06:42:59.646Z,9.25
2023-04-02T06:46:14.425Z,9.43
2023-04-02T06:49:38.141Z,9.34
2023-04-02T06:52:51.303Z,9.11
2023-04-02T06:56:01.406Z,9.36
2023-04-02T06:59:07.566Z,9.49
2023-04-02T07:02:28.626Z,9.59
2023-04-02T07:05:32.253Z,9.36
2023-04-02T07:08:35.580Z,9.23
2023-04-02T07:11:41.362Z,9.50
2023-04-02T07:14:48.558Z,9.49
2023-04-02T07:17:52.431Z,9.57
2023-04-02T07:20:56.820Z,9.99
2023-04-02T07:24:01.289Z,10.27
2023-04-02T07:27:04.621Z,10.66
2023-04-02T07:30:08.417Z,10.61
2023-04-02T07:33:19.078Z,10.74
2023-04-02T07:36:23.780Z,11.04
2023-04-02T07:39:27.090Z,11.00
2023-04-02T07:42:29.977Z,11.12
2023-04-02T07:45:33.644Z,11.20
2023-04-02T07:48:36.772Z,10.97
2023-04-02T07:51:39.931Z,10.98
2023-04-02T07:54:44.001Z,10.81
2023-04-02T07:57:55.897Z,10.93
2023-04-02T08:00:59.996Z,11.07
2023-04-02T08:04:05.030Z,11.07
2023-04-02T08:07:08.013Z,11.01
2023-04-02T08:10:12.471Z,10.94
2023-04-02T08:13:16.318Z,10.82
2023-04-02T08:16:19.638Z,11.15
2023-04-02T08:19:22.782Z,11.17
2023-04-02T08:22:27.738Z,11.03
2023-04-02T08:25:31.021Z,11.22
2023-04-02T08:28:34.506Z,11.27
2023-04-02T08:31:38.557Z,11.29
2023-04-02T08:34:45.266Z,11.12
2023-04-02T08:37:50.254Z,11.09
2023-04-02T08:40:57.206Z,11.20
2023-04-02T08:44:32.507Z,11.13
2023-04-02T08:47:38.101Z,11.32
2023-04-02T08:50:43.318Z,11.58
2023-04-02T08:53:46.677Z,11.85
2023-04-02T08:56:59.304Z,11.82
2023-04-02T09:00:24.063Z,11.70
2023-04-02T09:03:40.523Z,11.76
2023-04-02T09:06:44.390Z,11.96
2023-04-02T09:09:50.099Z,11.62
2023-04-02T09:12:54.101Z,11.72
2023-04-02T09:16:03.046Z,12.01
2023-04-02T09:19:23.799Z,12.10
2023-04-02T09:22:28.781Z,12.17
2023-04-02T09:25:32.408Z,12.70
2023-04-02T09:28:35.345Z,12.16
2023-04-02T09:31:46.842Z,12.11
2023-04-02T09:34:49.593Z,12.35
2023-04-02T09:38:07.891Z,12.37
2023-04-02T09:41:21.129Z,12.92
2023-04-02T09:44:26.757Z,12.54
2023-04-02T09:47:32.401Z,12.93
2023-04-02T09:50:36.176Z,12.82
2023-04-02T09:53:46.496Z,13.10
2023-04-02T09:57:24.880Z,12.81
2023-04-02T10:00:32.237Z,12.96
2023-04-02T10:03:36.777Z,13.24
2023-04-02T10:06:49.617Z,13.29
2023-04-02T10:10:21.380Z,13.57
2023-04-02T10:13:35.362Z,13.45
2023-04-02T10:16:50.093Z,13.24
2023-04-02T10:19:56.701Z,13.23
2023-04-02T10:23:01.288Z,12.99
2023-04-02T10:26:20.459Z,13.04
2023-04-02T10:29:29.474Z,13.56
2023-04-02T10:32:54.823Z,13.40
2023-04-02T10:36:02.793Z,13.73
2023-04-02T10:39:24.866Z,13.89
2023-04-02T10:42:37.236Z,13.93
2023-04-02T10:45:54.561Z,13.36
2023-04-02T10:49:06.845Z,13.48
2023-04-02T10:52:28.070Z,13.58
2023-04-02T10:55:34.806Z,13.77
2023-04-02T10:58:43.066Z,13.94
2023-04-02T11:01:48.510Z,13.48
2023-04-02T11:08:01.592Z,13.93
2023-04-02T11:11:16.691Z,14.50
2023-04-02T11:14:31.224Z,14.12
2023-04-02T11:17:34.319Z,14.12
2023-04-02T11:20:59.307Z,14.12
2023-04-02T11:24:03.163Z,14.23
2023-04-02T11:27:12.523Z,13.46
2023-04-02T11:30:25.384Z,13.69
2023-04-02T11:33:38.211Z,13.93
2023-04-02T11:36:54.875Z,13.61
2023-04-02T11:39:59.818Z,13.87
2023-04-02T11:43:34.024Z,13.61
2023-04-02T11:46:42.460Z,13.40
2023-04-02T11:50:01.709Z,14.10
2023-04-02T11:53:11.777Z,13.91
2023-04-02T11:56:39.563Z,13.41
2023-04-02T11:59:49.786Z,13.44
2023-04-02T12:03:19.134Z,15.51
2023-04-02T12:06:28.680Z,15.94
2023-04-02T12:09:37.152Z,16.87
2023-04-02T12:12:40.665Z,17.66
2023-04-02T12:15:48.064Z,17.02
2023-04-02T12:18:56.108Z,16.13
2023-04-02T12:21:59.592Z,15.70
2023-04-02T12:25:06.492Z,15.88
2023-04-02T12:28:09.773Z,14.81
2023-04-02T12:31:17.889Z,14.68
2023-04-02T12:34:23.498Z,15.12
2023-04-02T12:37:29.189Z,14.93
2023-04-02T12:40:32.235Z,16.89
2023-04-02T12:43:38.412Z,18.77
2023-04-02T12:46:42.257Z,17.79
2023-04-02T12:49:45.926Z,16.31
2023-04-02T12:52:55.069Z,15.95
2023-04-02T12:55:58.571Z,15.66
2023-04-02T12:59:01.970Z,15.73
2023-04-02T13:02:22.203Z,15.83
2023-04-02T13:05:34.074Z,16.31
2023-04-02T13:08:42.698Z,17.11
2023-04-02T13:11:45.979Z,17.13
2023-04-02T13:14:53.837Z,19.10
2023-04-02T13:18:08.083Z,18.04
2023-04-02T13:21:19.150Z,15.91
2023-04-02T13:24:31.741Z,14.96
2023-04-02T13:27:35.288Z,15.02
2023-04-02T13:30:38.967Z,15.87
2023-04-02T13:33:44.343Z,17.69
2023-04-02T13:36:47.908Z,19.50
2023-04-02T13:39:51.164Z,19.21
2023-04-02T13:42:54.274Z,18.00
2023-04-02T13:45:58.759Z,16.20
2023-04-02T13:49:02.247Z,15.10
2023-04-02T13:52:08.166Z,14.46
2023-04-02T13:55:12.627Z,14.31
2023-04-02T13:58:16.244Z,14.03
2023-04-02T14:01:21.408Z,14.12
2023-04-02T14:04:28.789Z,14.50
2023-04-02T14:08:03.766Z,14.47
2023-04-02T14:11:17.598Z,14.51
2023-04-02T14:14:42.605Z,14.10
2023-04-02T14:18:09.829Z,14.35
2023-04-02T14:21:29.270Z,14.64
2023-04-02T14:24:35.676Z,14.34
2023-04-02T14:28:03.470Z,14.34
2023-04-02T14:31:13.391Z,14.37
2023-04-02T14:34:27.174Z,14.89
2023-04-02T14:37:50.730Z,15.40
2023-04-02T14:41:19.973Z,15.68
2023-04-02T14:44:26.741Z,15.23
2023-04-02T14:47:47.021Z,15.88
2023-04-02T14:50:55.047Z,16.21
2023-04-02T14:54:07.644Z,16.78
2023-04-02T14:57:19.281Z,19.13
2023-04-02T15:00:35.208Z,19.04
2023-04-02T15:04:14.280Z,19.82
2023-04-02T15:07:23.774Z,17.02
2023-04-02T15:10:31.211Z,16.23
2023-04-02T15:13:42.637Z,17.49
2023-04-02T15:16:53.648Z,18.38
2023-04-02T15:20:08.156Z,18.60
2023-04-02T15:23:15.489Z,18.04
2023-04-02T15:26:47.111Z,19.17
2023-04-02T15:30:04.275Z,18.42
2023-04-02T15:33:27.767Z,19.17
2023-04-02T15:36:42.245Z,19.41
2023-04-02T15:40:01.067Z,18.50
2023-04-02T15:43:20.627Z,18.26
2023-04-02T15:47:09.373Z,17.71
2023-04-02T15:50:46.088Z,18.40
2023-04-02T15:54:01.019Z,17.89
2023-04-02T15:57:30.537Z,17.79
2023-04-02T16:01:10.344Z,16.32
2023-04-02T16:04:27.331Z,16.79
2023-04-02T16:08:00.984Z,17.68
2023-04-02T16:11:11.475Z,18.60
2023-04-02T16:14:35.896Z,17.50
2023-04-02T16:17:43.187Z,16.87
2023-04-02T16:20:48.301Z,15.44
2023-04-02T16:23:52.685Z,15.92
2023-04-02T16:26:57.301Z,14.84
2023-04-02T16:30:07.867Z,15.37
2023-04-02T16:33:33.615Z,15.72
2023-04-02T16:36:39.197Z,14.99
2023-04-02T16:40:03.600Z,13.83
2023-04-02T16:43:14.075Z,14.56
2023-04-02T16:46:40.243Z,14.32
2023-04-02T16:50:04.853Z,12.39
2023-04-02T16:53:20.829Z,12.50
2023-04-02T16:56:35.855Z,12.38
2023-04-02T17:00:12.892Z,11.81
2023-04-02T17:03:29.366Z,11.77
2023-04-02T17:06:34.903Z,11.41
2023-04-02T17:09:53.419Z,10.97
2023-04-02T17:13:21.258Z,10.16
2023-04-02T17:16:37.934Z,10.20
2023-04-02T17:19:43.680Z,10.03
2023-04-02T17:22:50.349Z,9.45
2023-04-02T17:25:58.164Z,9.37
2023-04-02T17:29:08.376Z,9.03
2023-04-02T17:32:21.638Z,9.17
2023-04-02T17:35:56.997Z,8.76
2023-04-02T17:39:08.982Z,8.56
2023-04-02T17:42:13.766Z,8.28
2023-04-02T17:45:24.281Z,8.34
2023-04-02T17:49:00.807Z,8.19
2023-04-02T17:52:22.870Z,7.95
2023-04-02T17:55:41.412Z,8.10
2023-04-02T17:58:59.456Z,7.76
2023-04-02T18:02:25.563Z,7.83
2023-04-02T18:05:55.040Z,7.90
2023-04-02T18:09:17.628Z,7.78
2023-04-02T18:12:27.686Z,7.64
2023-04-02T18:15:40.419Z,7.44
2023-04-02T18:18:55.662Z,7.39
2023-04-02T18:22:21.812Z,7.31
2023-04-02T18:25:44.417Z,7.12
2023-04-02T18:28:51.272Z,7.12
2023-04-02T18:32:03.358Z,7.15
2023-04-02T18:35:19.336Z,7.00
2023-04-02T18:38:28.662Z,6.91
2023-04-02T18:41:39.463Z,6.81
2023-04-02T18:45:09.243Z,6.73
2023-04-02T18:48:34.945Z,6.66
2023-04-02T18:51:41.636Z,6.89
2023-04-02T18:55:01.124Z,6.83
2023-04-02T18:58:22.021Z,6.84
2023-04-02T19:05:25.197Z,6.68
2023-04-02T19:08:48.969Z,6.71
2023-04-02T19:11:55.612Z,6.32
2023-04-02T19:15:00.426Z,6.26
2023-04-02T19:18:04.723Z,6.27
2023-04-02T19:21:34.568Z,6.04
2023-04-02T19:25:06.085Z,6.07
2023-04-02T19:28:39.284Z,6.11
2023-04-02T19:32:12.527Z,6.13
2023-04-02T19:35:36.569Z,6.25
2023-04-02T19:38:50.471Z,6.15
2023-04-02T19:42:01.283Z,5.87
2023-04-02T19:45:22.621Z,5.84
2023-04-02T19:48:30.124Z,5.77
2023-04-02T19:51:34.230Z,5.64
2023-04-02T19:54:39.650Z,5.83
2023-04-02T19:57:47.047Z,5.68
2023-04-02T20:00:52.402Z,5.77
2023-04-02T20:03:57.435Z,5.64
2023-04-02T20:07:02.964Z,5.53
2023-04-02T20:10:08.660Z,5.60
2023-04-02T20:13:13.492Z,5.29
2023-04-02T20:16:22.812Z,5.34
2023-04-02T20:19:26.664Z,5.60
2023-04-02T20:22:30.768Z,5.63
2023-04-02T20:25:34.580Z,5.54
2023-04-02T20:28:38.937Z,5.84
2023-04-02T20:31:42.598Z,5.91
2023-04-02T20:34:47.270Z,5.96
2023-04-02T20:37:50.998Z,5.86
2023-04-02T20:40:54.999Z,5.79
2023-04-02T20:43:59.559Z,5.85
2023-04-02T20:47:02.856Z,5.77
2023-04-02T20:50:07.594Z,5.83
2023-04-02T20:53:12.219Z,5.77
2023-04-02T20:56:16.875Z,5.86
2023-04-02T20:59:20.469Z,5.95
2023-04-02T21:02:23.550Z,5.54
2023-04-02T21:05:26.701Z,5.83
2023-04-02T21:08:29.920Z,5.49
2023-04-02T21:11:33.295Z,5.53
2023-04-02T21:14:39.088Z,5.69
2023-04-02T21:17:42.325Z,5.49
2023-04-02T21:20:45.398Z,5.61
2023-04-02T21:23:54.306Z,5.66
2023-04-02T21:26:57.209Z,5.36
2023-04-02T21:30:00.487Z,5.26
2023-04-02T21:33:03.457Z,5.54
2023-04-02T21:36:34.869Z,5.16
2023-04-02T21:39:37.783Z,5.42
2023-04-02T21:42:42.114Z,5.05
2023-04-02T21:45:45.112Z,4.95
2023-04-02T21:48:48.866Z,5.01
2023-04-02T21:51:52.284Z,4.80
2023-04-02T21:54:55.675Z,4.65
2023-04-02T21:57:58.631Z,4.64
2023-04-02T22:01:02.194Z,4.57
2023-04-02T22:04:07.428Z,4.80
2023-04-02T22:07:10.380Z,4.89
2023-04-02T22:10:13.557Z,4.88
2023-04-02T22:13:16.459Z,4.92
2023-04-02T22:16:22.064Z,4.94
2023-04-02T22:19:24.946Z,5.12
2023-04-02T22:22:28.703Z,5.00
2023-04-02T22:25:31.721Z,4.96
2023-04-02T22:28:36.231Z,5.15
2023-04-02T22:31:39.289Z,5.00
2023-04-02T22:34:45.814Z,4.95
2023-04-02T22:37:48.819Z,4.84
2023-04-02T22:40:52.048Z,4.95
2023-04-02T22:43:56.358Z,4.87
2023-04-02T22:46:59.616Z,4.84
2023-04-02T22:50:02.693Z,5.00
2023-04-02T22:53:06.165Z,5.15
2023-04-02T22:56:14.323Z,5.05
2023-04-02T22:59:17.480Z,4.76
2023-04-02T23:02:20.225Z,4.96
2023-04-02T23:05:23.297Z,5.02
2023-04-02T23:08:26.139Z,4.95
2023-04-02T23:11:29.314Z,5.03
2023-04-02T23:14:33.492Z,5.02
2023-04-02T23:17:38.573Z,4.89
2023-04-02T23:20:41.553Z,4.96
2023-04-02T23:23:47.131Z,4.95
2023-04-02T23:26:51.301Z,4.90
2023-04-02T23:29:54.543Z,4.95
2023-04-02T23:32:57.553Z,4.82
2023-04-02T23:36:01.170Z,4.83
2023-04-02T23:39:10.577Z,5.04
2023-04-02T23:42:13.849Z,5.01
2023-04-02T23:45:17.672Z,4.82
2023-04-02T23:48:20.898Z,5.02
2023-04-02T23:51:25.063Z,5.02
2023-04-02T23:54:28.679Z,5.04
2023-04-02T23:57:31.658Z,4.98
